Time;durP1;ratioP1;P1;durP2;ratioP2;P2;SDS_P1;SDS_P2;PMS_P1;PMS_P2;Temp;Humidity;BMP_temperature;BMP_pressure;BME280_temperature;BME280_humidity;BME280_pressure;Samples;Min_cycle;Max_cycle;Signal;HPM_P1;HPM_P2
2022/07/10 00:01:13;;;;;;;12.45;3.22;;;;;;;12.64;76.85;102777.25;6126053;23;20009;-81
2022/07/10 00:03:38;;;;;;;11.48;3.20;;;;;;;12.59;77.29;102778.38;6126056;23;20509;-81
2022/07/10 00:06:04;;;;;;;12.73;3.53;;;;;;;12.62;77.77;102778.22;6125942;23;20459;-80
2022/07/10 00:08:29;;;;;;;12.85;3.08;;;;;;;12.50;77.96;102750.22;6125815;23;20017;-81
2022/07/10 00:10:54;;;;;;;9.68;2.92;;;;;;;12.59;77.51;102776.63;6125987;23;20002;-80
2022/07/10 00:13:20;;;;;;;10.15;2.65;;;;;;;12.58;77.43;102774.06;6125582;23;20005;-79
2022/07/10 00:15:45;;;;;;;8.43;2.97;;;;;;;12.60;77.41;102770.53;6125691;23;20013;-81
2022/07/10 00:18:11;;;;;;;14.38;3.53;;;;;;;12.50;77.79;102765.78;6125781;23;20081;-81
2022/07/10 00:20:36;;;;;;;7.40;2.80;;;;;;;12.41;78.23;102756.63;6125977;23;20028;-74
2022/07/10 00:23:02;;;;;;;9.52;2.90;;;;;;;12.40;78.59;102762.69;6125667;23;20038;-74
2022/07/10 00:25:28;;;;;;;7.32;2.95;;;;;;;12.39;78.38;102760.16;6126146;23;20012;-81
2022/07/10 00:27:53;;;;;;;10.48;3.28;;;;;;;12.26;78.35;102746.84;6125505;23;20001;-81
2022/07/10 00:30:19;;;;;;;10.93;2.90;;;;;;;12.29;78.78;102759.66;6125870;23;20009;-81
2022/07/10 00:32:44;;;;;;;9.30;3.05;;;;;;;12.36;78.70;102758.53;6126108;23;20006;-80
2022/07/10 00:35:09;;;;;;;8.43;2.90;;;;;;;12.35;78.70;102752.50;6125734;23;20020;-81
2022/07/10 00:37:36;;;;;;;10.02;3.17;;;;;;;12.32;79.19;102756.97;6125755;23;20029;-82
2022/07/10 00:40:02;;;;;;;9.05;3.22;;;;;;;12.33;79.49;102762.09;6125467;23;20014;-81
2022/07/10 00:42:27;;;;;;;13.13;3.80;;;;;;;12.29;79.91;102754.50;6125581;23;20088;-79
2022/07/10 00:44:53;;;;;;;11.13;3.22;;;;;;;12.34;80.06;102749.97;6125385;23;20036;-78
2022/07/10 00:47:19;;;;;;;12.68;3.05;;;;;;;12.21;80.06;102726.31;6126006;23;20426;-81
2022/07/10 00:49:45;;;;;;;14.10;3.25;;;;;;;12.32;80.47;102731.91;6125762;23;20013;-81
2022/07/10 00:52:13;;;;;;;15.88;4.20;;;;;;;12.49;79.82;102745.94;6125356;23;20444;-81
2022/07/10 00:54:41;;;;;;;10.30;3.63;;;;;;;12.52;80.03;102748.41;6125404;23;20017;-80
2022/07/10 00:57:07;;;;;;;11.38;3.75;;;;;;;12.53;80.65;102742.31;6125887;23;20068;-79
2022/07/10 00:59:34;;;;;;;11.40;4.90;;;;;;;12.54;79.72;102738.81;6125959;23;20389;-81
2022/07/10 01:02:01;;;;;;;16.92;4.82;;;;;;;12.55;79.95;102736.16;6125844;23;20053;-81
2022/07/10 01:04:26;;;;;;;11.00;4.43;;;;;;;12.51;79.59;102736.34;6125197;23;20010;-80
2022/07/10 01:06:52;;;;;;;8.70;4.00;;;;;;;12.36;79.92;102709.31;6125600;23;20012;-76
2022/07/10 01:09:17;;;;;;;11.23;3.97;;;;;;;12.31;80.10;102713.84;6125419;23;20088;-80
2022/07/10 01:11:43;;;;;;;11.93;4.53;;;;;;;12.19;80.52;102702.22;6125459;23;20053;-80
2022/07/10 01:14:10;;;;;;;9.50;4.30;;;;;;;12.10;80.90;102699.16;6125556;23;20013;-72
2022/07/10 01:16:35;;;;;;;8.95;3.58;;;;;;;12.10;81.11;102710.38;6125684;23;20413;-81
2022/07/10 01:19:00;;;;;;;9.55;3.70;;;;;;;12.09;81.52;102705.22;6125690;23;20006;-79
2022/07/10 01:21:31;;;;;;;8.77;4.22;;;;;;;12.02;81.73;102709.81;6125828;23;20336;-79
2022/07/10 01:23:57;;;;;;;11.50;4.53;;;;;;;11.93;82.09;102707.59;6125356;23;20046;-81
2022/07/10 01:26:23;;;;;;;16.13;4.85;;;;;;;11.88;82.38;102710.31;6124053;23;20357;-74
2022/07/10 01:28:53;;;;;;;10.68;3.88;;;;;;;11.81;82.58;102721.00;6125440;23;20012;-80
2022/07/10 01:31:26;;;;;;;12.07;4.15;;;;;;;11.77;83.33;102717.63;6125241;23;20013;-81
2022/07/10 01:33:53;;;;;;;10.65;4.15;;;;;;;11.74;83.17;102720.34;6125554;23;20002;-80
2022/07/10 01:36:19;;;;;;;12.57;4.80;;;;;;;11.73;83.47;102724.69;6125620;23;20010;-80
2022/07/10 01:38:44;;;;;;;15.55;4.82;;;;;;;11.60;83.90;102710.53;6125624;23;20033;-80
2022/07/10 01:41:10;;;;;;;10.27;3.92;;;;;;;11.52;83.89;102707.38;6126359;23;20037;-81
2022/07/10 01:43:36;;;;;;;11.23;3.97;;;;;;;11.58;83.94;102709.72;6127604;23;20006;-78
2022/07/10 01:46:03;;;;;;;11.85;4.10;;;;;;;11.52;84.37;102701.34;6126853;23;20006;-81
2022/07/10 01:48:29;;;;;;;11.05;4.13;;;;;;;11.59;84.19;102720.91;6127259;23;20006;-77
2022/07/10 01:50:55;;;;;;;9.77;4.25;;;;;;;11.55;84.34;102721.94;6127024;23;20002;-74
2022/07/10 01:53:21;;;;;;;10.35;4.88;;;;;;;11.45;84.06;102714.50;6127269;23;20006;-79
2022/07/10 01:55:46;;;;;;;9.77;3.72;;;;;;;11.11;84.79;102660.59;6127089;23;20016;-74
2022/07/10 01:58:11;;;;;;;13.65;5.05;;;;;;;11.41;85.29;102702.59;6127125;23;20077;-81
2022/07/10 02:00:37;;;;;;;12.63;3.88;;;;;;;11.34;85.29;102684.75;6126905;23;20005;-75
2022/07/10 02:05:46;;;;;;;15.73;4.32;;;;;;;11.44;85.29;102707.66;6105205;23;20037;-77
2022/07/10 02:08:12;;;;;;;12.18;4.65;;;;;;;11.38;85.42;102699.25;6126892;23;20424;-78
2022/07/10 02:10:38;;;;;;;8.95;4.15;;;;;;;11.23;85.52;102677.38;6127113;23;20006;-78
2022/07/10 02:13:03;;;;;;;12.20;5.15;;;;;;;11.29;85.98;102700.44;6127366;23;20002;-81
2022/07/10 02:15:28;;;;;;;11.48;4.30;;;;;;;11.25;85.92;102703.19;6126694;23;20033;-80
2022/07/10 02:17:54;;;;;;;12.50;4.38;;;;;;;11.21;86.43;102710.22;6127050;23;20081;-78
2022/07/10 02:20:19;;;;;;;13.93;4.20;;;;;;;11.20;86.54;102708.50;6126918;23;20416;-78
2022/07/10 02:22:44;;;;;;;8.90;3.88;;;;;;;11.21;86.71;102712.81;6127040;23;20013;-76
2022/07/10 02:25:10;;;;;;;10.93;4.28;;;;;;;11.22;87.18;102711.06;6127249;23;20006;-78
2022/07/10 02:27:35;;;;;;;13.07;4.55;;;;;;;11.27;86.98;102710.00;6126902;23;20444;-81
2022/07/10 02:30:00;;;;;;;14.02;4.63;;;;;;;11.29;87.05;102708.19;6126444;23;20006;-80
2022/07/10 02:32:26;;;;;;;14.55;5.57;;;;;;;11.40;87.12;102712.97;6126862;23;20025;-74
2022/07/10 02:34:51;;;;;;;10.50;4.15;;;;;;;11.45;86.99;102696.41;6127067;23;20474;-72
2022/07/10 02:37:17;;;;;;;9.65;4.57;;;;;;;11.49;86.50;102679.00;6100407;23;20340;-73
2022/07/10 02:39:42;;;;;;;12.00;4.82;;;;;;;11.75;86.72;102703.91;6126703;23;20014;-79
2022/07/10 02:42:07;;;;;;;11.38;4.40;;;;;;;11.87;86.10;102700.03;6126313;23;20002;-75
2022/07/10 02:44:33;;;;;;;14.05;4.22;;;;;;;11.96;85.24;102699.69;6126597;23;20001;-77
2022/07/10 02:46:58;;;;;;;10.98;4.30;;;;;;;12.01;85.33;102701.19;6126601;23;20012;-77
2022/07/10 02:49:24;;;;;;;14.73;4.53;;;;;;;12.00;84.25;102678.81;6126678;23;20012;-71
2022/07/10 02:51:50;;;;;;;11.05;4.68;;;;;;;12.18;84.42;102692.75;6126514;23;20010;-72
2022/07/10 02:54:15;;;;;;;10.93;4.35;;;;;;;12.05;83.93;102669.09;6126417;23;20010;-75
2022/07/10 02:56:41;;;;;;;11.45;4.55;;;;;;;12.11;84.40;102675.78;6126699;23;20373;-71
2022/07/10 02:59:06;;;;;;;11.93;4.35;;;;;;;12.20;84.10;102685.78;6126690;23;20053;-78
2022/07/10 03:01:32;;;;;;;9.80;3.97;;;;;;;12.20;84.29;102682.34;6126751;23;20017;-78
2022/07/10 03:03:57;;;;;;;11.25;4.78;;;;;;;12.15;84.40;102682.53;6126512;23;20113;-74
2022/07/10 03:06:23;;;;;;;11.52;4.30;;;;;;;12.11;84.57;102683.56;6126695;23;20492;-79
2022/07/10 03:08:49;;;;;;;14.70;4.95;;;;;;;12.01;84.85;102682.25;6126315;23;20081;-79
2022/07/10 03:11:14;;;;;;;10.43;4.38;;;;;;;11.94;85.26;102680.78;6126148;23;20081;-81
2022/07/10 03:13:40;;;;;;;17.77;5.40;;;;;;;11.73;85.29;102670.31;6126307;23;20013;-79
2022/07/10 03:16:05;;;;;;;11.48;4.90;;;;;;;11.77;85.76;102682.22;6126512;23;20010;-76
2022/07/10 03:18:31;;;;;;;14.52;5.40;;;;;;;11.77;86.38;102684.81;6126698;23;20320;-81
2022/07/10 03:20:56;;;;;;;14.27;5.40;;;;;;;11.80;86.35;102693.41;6126680;23;20478;-80
2022/07/10 03:23:22;;;;;;;13.35;5.38;;;;;;;11.84;86.16;102687.22;6126522;23;20006;-77
2022/07/10 03:25:47;;;;;;;11.23;5.60;;;;;;;11.92;86.05;102695.53;6126104;23;20491;-80
2022/07/10 03:28:12;;;;;;;16.15;4.88;;;;;;;11.89;86.03;102675.78;6126269;23;20061;-73
2022/07/10 03:30:38;;;;;;;11.38;4.75;;;;;;;11.99;85.91;102679.69;6126322;23;20006;-81
2022/07/10 03:33:03;;;;;;;10.15;4.82;;;;;;;12.05;85.77;102681.19;6126230;23;20006;-73
2022/07/10 03:35:31;;;;;;;16.60;5.35;;;;;;;12.03;85.61;102681.28;6100575;23;20020;-81
2022/07/10 03:37:56;;;;;;;12.55;5.28;;;;;;;11.95;85.73;102660.00;6099617;23;20458;-78
2022/07/10 03:40:22;;;;;;;9.63;4.55;;;;;;;12.09;85.56;102677.56;6125482;23;20022;-80
2022/07/10 03:42:47;;;;;;;10.77;4.95;;;;;;;12.05;85.14;102676.03;6126196;23;20002;-78
2022/07/10 03:45:12;;;;;;;9.45;4.72;;;;;;;11.98;85.66;102666.81;6126490;23;20006;-78
2022/07/10 03:47:38;;;;;;;13.48;5.18;;;;;;;11.93;85.89;102671.34;6126483;23;20005;-78
2022/07/10 03:50:04;;;;;;;11.00;5.25;;;;;;;11.85;85.98;102668.19;6126007;23;20421;-80
2022/07/10 03:52:29;;;;;;;11.00;5.00;;;;;;;11.93;86.37;102671.34;6125777;23;20061;-81
2022/07/10 03:54:55;;;;;;;13.35;5.43;;;;;;;11.90;86.05;102663.69;6099893;23;20006;-80
2022/07/10 04:00:04;;;;;;;15.43;5.10;;;;;;;12.03;86.07;102680.44;6126114;23;20073;-76
2022/07/10 04:02:30;;;;;;;8.65;4.57;;;;;;;11.99;85.92;102658.13;6099958;23;20006;-81
2022/07/10 04:04:55;;;;;;;14.57;5.03;;;;;;;12.17;85.95;102675.53;6126199;23;20002;-77
2022/07/10 04:07:20;;;;;;;10.90;4.35;;;;;;;12.23;85.55;102679.63;6125705;23;20006;-81
2022/07/10 04:09:46;;;;;;;13.20;5.40;;;;;;;12.31;84.91;102673.25;6125756;23;20012;-80
2022/07/10 04:12:11;;;;;;;13.93;4.43;;;;;;;12.38;85.10;102676.41;6125736;23;20002;-74
2022/07/10 04:14:36;;;;;;;11.52;4.07;;;;;;;12.47;84.46;102672.59;6125740;23;20013;-74
2022/07/10 04:17:02;;;;;;;12.82;4.90;;;;;;;12.52;84.20;102655.97;6125950;23;20037;-74
2022/07/10 04:19:27;;;;;;;12.18;4.93;;;;;;;12.51;84.01;102636.13;6125844;23;20059;-81
2022/07/10 04:21:52;;;;;;;14.23;4.25;;;;;;;12.68;83.96;102658.72;6126071;23;20013;-77
2022/07/10 04:24:18;;;;;;;10.98;4.55;;;;;;;12.76;83.23;102668.78;6125815;23;20014;-81
2022/07/10 04:26:44;;;;;;;8.07;4.03;;;;;;;12.76;83.36;102672.22;6125873;23;20365;-81
2022/07/10 04:29:09;;;;;;;13.85;4.38;;;;;;;12.79;83.57;102673.84;6126021;23;20013;-78
2022/07/10 04:31:35;;;;;;;12.52;4.70;;;;;;;12.70;82.91;102645.72;6125607;23;20038;-78
2022/07/10 04:34:00;;;;;;;9.38;4.25;;;;;;;12.72;83.67;102642.16;6125546;23;20697;-80
2022/07/10 04:36:26;;;;;;;9.35;4.32;;;;;;;12.93;82.48;102676.69;6125719;23;20010;-75
2022/07/10 04:38:51;;;;;;;9.90;3.85;;;;;;;12.98;82.38;102676.47;6098408;23;20010;-79
2022/07/10 04:41:16;;;;;;;11.10;4.10;;;;;;;12.81;82.14;102627.94;6125431;23;20010;-81
2022/07/10 04:43:41;;;;;;;17.48;4.70;;;;;;;13.05;82.28;102665.75;6125929;23;20479;-81
2022/07/10 04:46:07;;;;;;;13.63;4.15;;;;;;;13.16;81.53;102680.84;6126115;23;20013;-81
2022/07/10 04:48:32;;;;;;;9.60;4.40;;;;;;;13.18;81.42;102676.47;6125410;23;20428;-78
2022/07/10 04:50:58;;;;;;;12.55;4.70;;;;;;;13.22;81.21;102679.78;6125622;23;20389;-81
2022/07/10 04:53:23;;;;;;;10.35;3.83;;;;;;;13.25;81.36;102679.63;6125525;23;20040;-81
2022/07/10 04:55:49;;;;;;;14.15;4.13;;;;;;;13.19;81.29;102658.25;6125652;23;20013;-80
2022/07/10 04:58:14;;;;;;;10.68;3.90;;;;;;;13.30;81.55;102644.81;6125598;23;20002;-80
2022/07/10 05:00:39;;;;;;;13.23;3.97;;;;;;;13.44;81.29;102660.56;6125828;23;20006;-79
2022/07/10 05:03:05;;;;;;;9.07;3.72;;;;;;;13.48;80.79;102675.09;6125585;23;20002;-81
2022/07/10 05:05:30;;;;;;;10.10;4.10;;;;;;;13.55;80.52;102680.84;6126049;23;20328;-81
2022/07/10 05:07:55;;;;;;;11.02;4.70;;;;;;;13.55;80.23;102667.00;6125900;23;20435;-81
2022/07/10 05:10:21;;;;;;;11.55;4.18;;;;;;;13.73;79.91;102689.53;6099602;23;20010;-81
2022/07/10 05:12:46;;;;;;;9.52;3.33;;;;;;;13.80;80.23;102687.50;6126476;23;20053;-81
2022/07/10 05:15:11;;;;;;;10.50;3.90;;;;;;;13.79;79.82;102673.69;6126191;23;20006;-81
2022/07/10 05:17:37;;;;;;;11.35;3.65;;;;;;;13.95;79.33;102687.59;6102074;23;20336;-80
2022/07/10 05:20:02;;;;;;;10.52;3.78;;;;;;;13.94;79.39;102669.50;6127825;23;20010;-81
2022/07/10 05:22:30;;;;;;;9.30;3.20;;;;;;;13.91;79.59;102675.69;6127313;23;20088;-79
2022/07/10 05:24:55;;;;;;;13.48;4.30;;;;;;;14.78;78.38;102668.81;6127412;23;20017;-81
2022/07/10 05:27:21;;;;;;;12.15;3.13;;;;;;;16.90;70.96;102672.59;6127609;23;20001;-78
2022/07/10 05:29:46;;;;;;;10.75;3.05;;;;;;;18.95;63.45;102666.38;6127783;23;20099;-79
2022/07/10 05:32:12;;;;;;;9.95;2.85;;;;;;;20.69;57.70;102665.00;6127248;23;20077;-80
2022/07/10 05:34:38;;;;;;;7.50;2.60;;;;;;;21.60;53.14;102658.72;6127022;23;20088;-79
2022/07/10 05:37:03;;;;;;;8.10;2.60;;;;;;;21.65;52.44;102649.53;6127330;23;20006;-79
2022/07/10 05:39:29;;;;;;;12.88;3.03;;;;;;;21.80;51.84;102676.34;6127101;23;20014;-83
2022/07/10 05:41:55;;;;;;;9.43;2.00;;;;;;;22.82;50.72;102669.59;6127457;23;20009;-80
2022/07/10 05:44:21;;;;;;;6.80;2.05;;;;;;;23.60;48.23;102645.19;6127204;23;20045;-80
2022/07/10 05:46:46;;;;;;;9.18;2.50;;;;;;;24.43;45.77;102664.84;6127324;23;20330;-80
2022/07/10 05:49:12;;;;;;;9.23;2.10;;;;;;;25.03;44.73;102675.94;6127210;23;20424;-78
2022/07/10 05:51:37;;;;;;;7.40;2.40;;;;;;;25.60;43.35;102667.78;6127567;23;20006;-81
2022/07/10 05:54:03;;;;;;;7.20;1.98;;;;;;;26.29;41.99;102677.66;6127209;23;20436;-81
2022/07/10 05:56:28;;;;;;;9.45;2.05;;;;;;;26.25;41.13;102663.06;6127339;23;20013;-80
2022/07/10 05:58:55;;;;;;;8.02;2.10;;;;;;;26.52;40.81;102631.13;6127067;23;20010;-80
2022/07/10 06:01:21;;;;;;;6.20;2.03;;;;;;;26.90;40.35;102652.03;6127453;23;20005;-80
2022/07/10 06:03:47;;;;;;;6.43;2.08;;;;;;;27.48;38.95;102654.69;6126966;23;20009;-76
2022/07/10 06:06:15;;;;;;;10.02;2.40;;;;;;;27.68;38.27;102658.72;6126815;23;20010;-81
2022/07/10 06:08:41;;;;;;;8.45;1.70;;;;;;;27.58;37.28;102659.84;6127276;23;20010;-81
2022/07/10 06:11:06;;;;;;;7.05;1.77;;;;;;;26.05;39.53;102654.47;6127121;23;20002;-80
2022/07/10 06:13:31;;;;;;;6.82;2.08;;;;;;;24.60;43.27;102650.91;6126669;23;20016;-83
2022/07/10 06:15:57;;;;;;;9.40;2.28;;;;;;;23.99;45.50;102669.75;6126647;23;20009;-81
2022/07/10 06:18:22;;;;;;;9.05;2.15;;;;;;;23.98;43.18;102659.31;6100413;23;20048;-81
2022/07/10 06:20:47;;;;;;;14.82;2.22;;;;;;;23.63;44.83;102662.53;6126828;23;20034;-80
2022/07/10 06:23:12;;;;;;;8.85;2.38;;;;;;;23.49;45.77;102658.44;6126698;23;20010;-80
2022/07/10 06:25:38;;;;;;;9.10;2.30;;;;;;;23.07;46.45;102656.00;6127228;23;20002;-79
2022/07/10 06:28:03;;;;;;;12.60;2.70;;;;;;;22.76;46.57;102656.94;6126035;23;20006;-81
2022/07/10 06:30:29;;;;;;;6.78;2.25;;;;;;;22.37;47.50;102655.91;6127021;23;20029;-80
2022/07/10 06:32:54;;;;;;;5.75;1.85;;;;;;;22.41;49.21;102652.88;6126973;23;20081;-80
2022/07/10 06:35:19;;;;;;;10.05;2.50;;;;;;;23.99;46.57;102651.28;6126482;23;20383;-78
2022/07/10 06:37:44;;;;;;;8.40;2.33;;;;;;;25.67;41.55;102650.34;6126649;23;20325;-76
2022/07/10 06:40:13;;;;;;;7.05;1.92;;;;;;;27.19;38.77;102652.47;6126681;23;20018;-80
2022/07/10 06:42:39;;;;;;;7.72;2.10;;;;;;;27.70;37.95;102654.06;6126665;23;20006;-80
2022/07/10 06:45:05;;;;;;;6.72;1.65;;;;;;;27.27;37.33;102657.81;6126988;23;20002;-80
2022/07/10 06:50:14;;;;;;;9.18;2.20;;;;;;;25.00;42.31;102667.44;6126685;23;20073;-78
2022/07/10 06:52:40;;;;;;;14.73;2.30;;;;;;;23.93;43.83;102632.53;6126074;23;20014;-77
2022/07/10 06:55:06;;;;;;;7.80;2.03;;;;;;;23.58;45.55;102656.78;6127405;23;20009;-79
2022/07/10 06:57:31;;;;;;;7.22;1.77;;;;;;;23.11;46.86;102651.31;6126432;23;20500;-79
2022/07/10 06:59:56;;;;;;;9.65;2.22;;;;;;;22.97;46.81;102647.22;6126609;23;20008;-78
2022/07/10 07:02:22;;;;;;;7.57;2.25;;;;;;;22.95;46.11;102654.44;6126858;23;20002;-79
2022/07/10 07:04:48;;;;;;;12.57;2.05;;;;;;;23.17;46.20;102633.13;6126754;23;19997;-79
2022/07/10 07:07:14;;;;;;;7.43;1.73;;;;;;;23.82;45.56;102644.06;6126567;23;20006;-78
2022/07/10 07:09:40;;;;;;;10.30;2.33;;;;;;;23.69;43.97;102644.31;6126745;23;20010;-81
2022/07/10 07:12:06;;;;;;;9.48;2.28;;;;;;;24.14;44.09;102650.84;6126008;23;20010;-78
2022/07/10 07:14:32;;;;;;;6.95;1.90;;;;;;;24.33;43.89;102668.50;6126124;23;20044;-77
2022/07/10 07:17:00;;;;;;;10.32;2.13;;;;;;;24.06;44.45;102667.38;6099703;23;20088;-77
2022/07/10 07:19:31;;;;;;;9.05;2.00;;;;;;;23.35;46.34;102666.75;6126456;23;20009;-78
2022/07/10 07:24:43;;;;;;;10.48;2.60;;;;;;;21.64;49.74;102676.78;6126168;23;20013;-77
2022/07/10 07:27:10;;;;;;;9.85;2.38;;;;;;;21.27;51.28;102675.41;6126235;23;20328;-76
2022/07/10 07:29:35;;;;;;;12.00;2.33;;;;;;;20.97;51.80;102681.25;6126215;23;20005;-75
2022/07/10 07:32:00;;;;;;;12.23;2.90;;;;;;;20.85;53.77;102678.63;6126221;23;20012;-76
2022/07/10 07:34:26;;;;;;;10.20;3.03;;;;;;;20.72;53.96;102651.63;6099472;23;20067;-78
2022/07/10 07:36:51;;;;;;;12.77;3.58;;;;;;;20.78;52.94;102673.97;6126074;23;20009;-79
2022/07/10 07:39:17;;;;;;;16.00;3.30;;;;;;;20.85;53.83;102660.25;6125623;23;20013;-77
2022/07/10 07:41:42;;;;;;;9.23;3.30;;;;;;;21.13;53.00;102671.19;6126071;23;20002;-75
2022/07/10 07:44:07;;;;;;;14.57;4.25;;;;;;;20.86;53.04;102675.03;6126027;23;20009;-80
2022/07/10 07:46:33;;;;;;;14.35;3.05;;;;;;;20.59;54.88;102672.75;6126213;23;20336;-80
2022/07/10 07:48:58;;;;;;;10.88;3.45;;;;;;;20.41;55.97;102674.09;6125895;23;20006;-76
2022/07/10 07:51:23;;;;;;;13.43;3.30;;;;;;;20.29;56.59;102661.91;6126007;23;20006;-76
2022/07/10 07:53:49;;;;;;;9.88;3.67;;;;;;;20.24;57.17;102661.41;6125966;23;20016;-76
2022/07/10 07:56:14;;;;;;;12.18;3.50;;;;;;;19.89;56.25;102649.13;6126184;23;20017;-77
2022/07/10 07:58:39;;;;;;;7.45;3.20;;;;;;;19.67;57.19;102642.03;6126282;23;20010;-78
2022/07/10 08:01:05;;;;;;;12.93;3.17;;;;;;;19.63;56.90;102665.94;6126247;23;20002;-74
2022/07/10 08:03:30;;;;;;;11.38;3.65;;;;;;;19.26;58.02;102660.66;6100037;23;20064;-80
2022/07/10 08:05:55;;;;;;;9.85;2.92;;;;;;;19.33;59.08;102674.16;6125558;23;20010;-79
2022/07/10 08:08:21;;;;;;;10.63;3.63;;;;;;;19.64;58.69;102678.91;6125966;23;20058;-79
2022/07/10 08:10:46;;;;;;;12.43;4.55;;;;;;;19.58;57.54;102642.69;6126093;23;20002;-79
2022/07/10 08:13:12;;;;;;;10.10;3.90;;;;;;;19.89;56.16;102671.91;6075853;23;20010;-78
2022/07/10 08:15:37;;;;;;;13.93;4.32;;;;;;;19.97;57.44;102669.56;6125761;23;20085;-80
2022/07/10 08:18:07;;;;;;;14.95;4.45;;;;;;;20.02;56.74;102660.38;6125591;23;20432;-76
2022/07/10 08:20:33;;;;;;;16.50;4.22;;;;;;;20.18;56.68;102667.13;6125664;23;20060;-75
2022/07/10 08:22:58;;;;;;;10.80;3.97;;;;;;;20.11;56.75;102645.75;6125764;23;20427;-78
2022/07/10 08:25:24;;;;;;;12.65;4.32;;;;;;;19.97;57.81;102632.84;6125974;23;20002;-79
2022/07/10 08:27:50;;;;;;;17.60;4.20;;;;;;;19.70;56.71;102628.69;6125861;23;20014;-78
2022/07/10 08:30:15;;;;;;;16.38;4.10;;;;;;;19.63;57.89;102644.97;6125790;23;20002;-79
2022/07/10 08:32:40;;;;;;;11.93;3.70;;;;;;;19.61;58.38;102637.22;6125837;23;20479;-80
2022/07/10 08:35:07;;;;;;;7.35;3.30;;;;;;;19.70;58.31;102656.69;6125527;23;20006;-80
2022/07/10 08:37:44;;;;;;;13.55;4.05;;;;;;;19.82;57.64;102668.06;6125879;23;20057;-79
2022/07/10 08:40:12;;;;;;;11.18;4.07;;;;;;;19.92;58.23;102662.03;6125822;23;20014;-77
2022/07/10 08:42:40;;;;;;;10.70;3.70;;;;;;;20.08;57.86;102663.53;6125733;23;20052;-76
2022/07/10 08:45:06;;;;;;;8.73;3.45;;;;;;;20.04;57.64;102655.84;6125621;23;20056;-77
2022/07/10 08:47:35;;;;;;;9.43;3.40;;;;;;;20.04;57.69;102665.50;6125723;23;20010;-77
2022/07/10 08:50:01;;;;;;;8.57;3.50;;;;;;;19.95;57.25;102655.69;6125436;23;20335;-79
2022/07/10 08:52:33;;;;;;;13.55;3.65;;;;;;;20.15;58.02;102672.59;6125637;23;20009;-78
2022/07/10 08:54:58;;;;;;;11.18;3.45;;;;;;;20.19;57.46;102674.88;6125789;23;20332;-79
2022/07/10 08:57:25;;;;;;;8.73;3.63;;;;;;;19.90;58.64;102647.34;6125465;23;20002;-79
2022/07/10 08:59:51;;;;;;;13.07;3.60;;;;;;;19.90;57.10;102668.34;6125661;23;20076;-78
2022/07/10 09:02:16;;;;;;;14.20;3.58;;;;;;;19.86;59.02;102674.72;6125496;23;20030;-77
2022/07/10 09:04:42;;;;;;;9.60;3.25;;;;;;;19.80;59.33;102676.03;6125941;23;20030;-79
2022/07/10 09:07:07;;;;;;;9.35;3.35;;;;;;;19.78;59.69;102670.06;6125824;23;20049;-79
2022/07/10 09:09:54;;;;;;;12.77;3.10;;;;;;;19.89;58.33;102664.88;6125588;23;20006;-79
2022/07/10 09:12:24;;;;;;;13.75;3.38;;;;;;;19.93;58.80;102660.22;6099121;23;20329;-76
2022/07/10 09:14:50;;;;;;;10.30;3.22;;;;;;;19.80;58.75;102662.09;6125780;23;20010;-74
2022/07/10 09:17:17;;;;;;;10.23;3.33;;;;;;;19.32;59.91;102631.41;6125441;23;20088;-76
2022/07/10 09:19:43;;;;;;;8.73;3.60;;;;;;;19.41;59.87;102662.19;6125750;23;20375;-80
2022/07/10 09:22:10;;;;;;;11.38;4.18;;;;;;;19.31;62.82;102647.25;6125480;23;20044;-76
2022/07/10 09:24:43;;;;;;;11.65;3.70;;;;;;;19.43;61.31;102657.69;6125322;23;20021;-76
2022/07/10 09:27:09;;;;;;;14.15;3.63;;;;;;;19.64;60.95;102644.84;6125725;23;20033;-78
2022/07/10 09:29:55;;;;;;;7.97;3.05;;;;;;;19.96;60.82;102637.25;6124942;23;20452;-75
2022/07/10 09:32:21;;;;;;;12.75;3.38;;;;;;;20.17;58.20;102639.22;6125573;23;20006;-75
2022/07/10 09:37:39;;;;;;;8.15;3.22;;;;;;;21.11;56.61;102652.09;6125698;23;20459;-80
2022/07/10 09:40:07;;;;;;;9.88;3.08;;;;;;;21.54;55.11;102644.31;6127144;23;20014;-81
2022/07/10 09:42:42;;;;;;;8.43;3.22;;;;;;;21.70;53.17;102641.25;6126532;23;20092;-77
2022/07/10 09:45:11;;;;;;;12.70;3.35;;;;;;;21.52;54.00;102634.84;6125190;23;20144;-79
2022/07/10 09:47:37;;;;;;;6.13;3.08;;;;;;;21.10;54.84;102639.94;6125755;23;20006;-79
2022/07/10 09:50:03;;;;;;;9.02;3.25;;;;;;;20.80;56.41;102638.75;6125294;23;20002;-80
2022/07/10 09:52:29;;;;;;;11.20;3.47;;;;;;;20.52;56.13;102640.03;6125589;23;20017;-79
2022/07/10 09:54:56;;;;;;;8.82;3.45;;;;;;;20.54;56.34;102646.00;6125139;23;20006;-80
2022/07/10 09:57:26;;;;;;;9.30;3.70;;;;;;;20.83;56.51;102638.50;6124935;23;20002;-80
2022/07/10 09:59:53;;;;;;;10.13;3.30;;;;;;;21.42;55.31;102635.59;6125092;23;20673;-80
2022/07/10 10:02:20;;;;;;;8.20;3.25;;;;;;;21.66;53.48;102619.66;6126614;23;20091;-83
2022/07/10 10:04:47;;;;;;;8.15;3.95;;;;;;;21.63;53.03;102593.63;6127164;23;20005;-83
2022/07/10 10:07:14;;;;;;;13.23;3.95;;;;;;;22.17;53.30;102634.72;6126927;23;20001;-82
2022/07/10 10:09:45;;;;;;;11.18;4.18;;;;;;;22.09;52.68;102631.06;6127472;23;20009;-82
2022/07/10 10:12:16;;;;;;;10.55;3.67;;;;;;;22.55;52.22;102636.75;6126844;23;20013;-80
2022/07/10 10:14:43;;;;;;;8.68;3.58;;;;;;;22.61;51.04;102620.44;6126826;23;20069;-82
2022/07/10 10:17:10;;;;;;;10.45;4.00;;;;;;;22.44;49.84;102601.78;6127018;23;20060;-82
2022/07/10 10:22:23;;;;;;;7.78;3.08;;;;;;;22.25;51.58;102631.47;6126719;23;20131;-81
2022/07/10 10:24:49;;;;;;;9.75;2.97;;;;;;;22.09;52.32;102628.44;6127224;23;20344;-80
2022/07/10 10:27:15;;;;;;;8.10;3.10;;;;;;;22.18;52.56;102620.59;6100033;23;20036;-79
2022/07/10 10:29:41;;;;;;;6.70;2.47;;;;;;;22.46;50.92;102610.38;6126826;23;20010;-83
2022/07/10 10:32:09;;;;;;;8.40;3.08;;;;;;;22.77;48.88;102619.94;6126604;23;20361;-78
2022/07/10 10:34:42;;;;;;;9.20;3.22;;;;;;;23.11;49.35;102625.78;6126679;23;20005;-80
2022/07/10 10:37:27;;;;;;;7.25;2.60;;;;;;;23.50;49.17;102617.94;6126782;23;20009;-81
2022/07/10 10:39:56;;;;;;;8.60;2.90;;;;;;;23.53;46.90;102611.56;6126115;23;20021;-82
2022/07/10 10:42:34;;;;;;;7.43;3.10;;;;;;;23.46;49.24;102619.16;6126659;23;20455;-81
2022/07/10 10:45:27;;;;;;;6.28;2.80;;;;;;;23.48;49.55;102607.50;6126639;23;20009;-80
2022/07/10 10:48:00;;;;;;;8.75;2.90;;;;;;;23.02;48.64;102602.03;6126724;23;20009;-80
2022/07/10 10:50:38;;;;;;;7.88;2.25;;;;;;;23.22;49.25;102611.66;6126777;23;20006;-77
2022/07/10 10:53:05;;;;;;;7.07;2.72;;;;;;;23.43;47.65;102611.53;6126682;23;20025;-81
2022/07/10 10:55:30;;;;;;;9.30;2.83;;;;;;;23.62;47.52;102606.31;6126547;23;20472;-82
2022/07/10 10:58:17;;;;;;;5.57;2.85;;;;;;;23.50;47.72;102607.41;6126892;23;20033;-79
2022/07/10 11:00:43;;;;;;;6.32;2.55;;;;;;;23.31;47.60;102599.47;6126523;23;20013;-81
2022/07/10 11:03:17;;;;;;;7.80;2.22;;;;;;;23.27;48.92;102603.31;6126898;23;20002;-82
2022/07/10 11:05:44;;;;;;;8.07;2.90;;;;;;;23.09;48.00;102598.72;6126614;23;20009;-78
2022/07/10 11:08:10;;;;;;;8.05;2.53;;;;;;;23.12;48.10;102597.63;6126570;23;20424;-82
2022/07/10 11:10:36;;;;;;;7.30;2.83;;;;;;;23.22;48.18;102602.91;6126351;23;20428;-77
2022/07/10 11:13:01;;;;;;;6.65;2.83;;;;;;;23.37;48.05;102601.53;6125962;23;20037;-80
2022/07/10 11:15:32;;;;;;;10.88;3.38;;;;;;;23.35;47.15;102590.28;6126178;23;20010;-77
2022/07/10 11:18:05;;;;;;;7.40;3.00;;;;;;;23.36;48.54;102600.69;6126603;23;20013;-83
2022/07/10 11:20:33;;;;;;;5.15;3.00;;;;;;;23.19;48.00;102572.38;6126314;23;20013;-84
2022/07/10 11:23:17;;;;;;;7.97;3.00;;;;;;;23.62;47.71;102597.56;6126010;23;20025;-77
2022/07/10 11:26:01;;;;;;;8.48;3.28;;;;;;;23.64;48.05;102596.44;6126739;23;20009;-77
2022/07/10 11:28:51;;;;;;;7.88;2.63;;;;;;;23.67;47.09;102597.97;6126209;23;20028;-76
2022/07/10 11:31:21;;;;;;;6.72;2.88;;;;;;;23.75;47.43;102600.75;6126032;23;20005;-81
2022/07/10 11:33:49;;;;;;;8.03;3.03;;;;;;;23.75;47.18;102593.66;6099108;23;20006;-80
2022/07/10 11:36:25;;;;;;;6.10;2.95;;;;;;;23.93;48.22;102592.97;6126506;23;20006;-78